NEODyS-2

Near Earth Objects - Dynamic Site
NEODyS ∴ Observatories ∴ Site 691 ∴ Obs & residuals
Contact »
691  ▹ 
OBSERVATIONS AND RESIDUALS

691-Steward Observatory, Kitt Peak-Spacewatch

Detections | Residuals | Detections & Residuals

[1-200] [201-400] [401-600] [601-800] [801-1000] [1001-1200] [1201-1400] [1401-1600] [1601-1800] [1801-2000] [2001-2200] [2201-2400] [2401-2600] [2601-2800] [2801-3000] [3001-3200] [3201-3400] [3401-3600] [3601-3800] [3801-4000] [4001-4200] [4201-4400] [4401-4600] [4601-4800] [4801-5000] [5001-5200] [5201-5400] [5401-5600] [5601-5800] [5801-6000] [6001-6200] [6201-6400] [6401-6600] [6601-6800] [6801-7000] [7001-7200] [7201-7400] [7401-7600] [7601-7800] [7801-8000] [8001-8200] [8201-8400] [8401-8600] [8601-8800] [8801-9000] [9001-9200] [9201-9400] [9401-9600] [9601-9800] [9801-10000] [10001-10200] [10201-10400] [10401-10600] [10601-10800] [10801-11000] [11001-11200] [11201-11400] [11401-11600] [11601-11800] [11801-12000] [12001-12200] [12201-12400] [12401-12600] [12601-12800] [12801-13000] [13001-13200] [13201-13400] [13401-13600] [13601-13800] [13801-14000] [14001-14200] [14201-14400] [14401-14600] [14601-14800] [14801-15000] [15001-15200] [15201-15400] [15401-15600] [15601-15800] [15801-16000] [16001-16200] [16201-16400] [16401-16600] [16601-16800] [16801-17000] [17001-17200] [17201-17400] [17401-17600] [17601-17800] [17801-18000] [18001-18200] [18201-18400] [18401-18600] [18601-18800] [18801-19000] [19001-19200] [19201-19400] [19401-19600] [19601-19800] [19801-20000] [20001-20200] [20201-20400] [20401-20600] [20601-20800] [20801-21000] [21001-21200] [21201-21400] [21401-21600] [21601-21800] [21801-22000] [22001-22200] [22201-22400] [22401-22600] [22601-22800] [22801-23000] [23001-23200] [23201-23400] [23401-23600] [23601-23800] [23801-24000] [24001-24200] [24201-24400] [24401-24600] [24601-24800] [24801-25000] [25001-25200] [25201-25400] [25401-25600] [25601-25800] [25801-26000] [26001-26200] [26201-26400] [26401-26600] [26601-26800] [26801-27000] [27001-27200] [27201-27400] [27401-27600] [27601-27800] [27801-28000] [28001-28200] [28201-28400] [28401-28600] [28601-28800] [28801-29000] [29001-29200] [29201-29400] [29401-29600] [29601-29800] [29801-30000] [30001-30200] [30201-30400] [30401-30600] [30601-30800] [30801-31000] [31001-31200] [31201-31400] [31401-31600] [31601-31800] [31801-32000] [32001-32200] [32201-32400] [32401-32600] [32601-32800] [32801-33000] [33001-33200] [33201-33400] [33401-33600] [33601-33800] [33801-34000] [34001-34200] [34201-34400] [34401-34600] [34601-34800] [34801-35000] [35001-35200] [35201-35400] [35401-35600] [35601-35800] [35801-36000] [36001-36200] [36201-36400] [36401-36600] [36601-36800] [36801-37000] [37001-37200] [37201-37400] [37401-37600] [37601-37800] [37801-38000] [38001-38200] [38201-38400] [38401-38600] [38601-38800] [38801-39000] [39001-39200] [39201-39400] [39401-39600] [39601-39800] [39801-40000] [40001-40200] [40201-40400] [40401-40600] [40601-40800] [40801-41000] [41001-41200] [41201-41400] [41401-41600] [41601-41800] [41801-42000] [42001-42200] [42201-42400] [42401-42600] [42601-42800] [42801-43000] [43001-43200] [43201-43400] [43401-43600] [43601-43800] [43801-44000] [44001-44200] [44201-44400] [44401-44600] [44601-44800] [44801-45000] [45001-45200] [45201-45400] [45401-45600] [45601-45800] [45801-46000] [46001-46200] [46201-46400] [46401-46600] [46601-46800] [46801-47000] [47001-47200] [47201-47400] [47401-47600] [47601-47800] [47801-48000] [48001-48200] [48201-48400] [48401-48600] [48601-48800] [48801-49000] [49001-49200] [49201-49400] [49401-49600] [49601-49800] [49801-50000] [50001-50200] [50201-50400] [50401-50600] [50601-50741]

Designation T Tech N Date Right Ascension Declination Apparent Magnitude Star Catalog Site code χ Used A Used M
yr-mo-day precision hr:min:sec precision rms F bias residual deg min sec precision rms F bias residual mag/col rms residual
2021FN4 O C K 2021-04-08.33472 1.000E-05 12:37:52.660 1.500E-01 0.500 F 0.145 -0.138 +18° 58' 59.20" 1.000E-01 0.500 F 0.301 -0.029 21.1 R 0.70 0.13 o 691 0.28 Yes Yes
2021FP3 O C H 2021-04-08.49766 1.000E-05 15:10:27.560 1.500E-01 0.500 F 0.188 -0.218 +13° 50' 19.80" 1.000E-01 0.500 F 0.225 -0.044 19.5 R 0.70 0.00 o 691 0.45 Yes Yes
2021FP3 O C H 2021-04-08.49890 1.000E-05 15:10:27.410 1.500E-01 0.500 F 0.188 -0.280 +13° 50' 16.00" 1.000E-01 0.500 F 0.225 0.225 19.3 R 0.70 -0.20 o 691 0.73 Yes Yes
2021FP3 O C H 2021-04-08.50014 1.000E-05 15:10:27.300 1.500E-01 0.500 F 0.188 0.236 +13° 50' 11.80" 1.000E-01 0.500 F 0.225 0.094 19.5 R 0.70 0.00 o 691 0.52 Yes Yes
Apophis O C 2021-04-09.11941 1.000E-05 08:05:22.330 1.500E-01 0.500 F -0.024 -0.153 +14° 58' 34.30" 1.000E-01 0.500 F 0.149 -0.003 18.3 V 0.70 0.94 o 691 0.31 Yes Yes
Apophis O C 2021-04-09.14266 1.000E-05 08:05:20.880 1.500E-01 0.500 F -0.024 -0.249 +14° 59' 11.10" 1.000E-01 0.500 F 0.149 -0.112 18.3 V 0.70 0.94 o 691 0.55 Yes Yes
Apophis O C 2021-04-09.16437 1.000E-05 08:05:19.560 1.500E-01 0.500 F -0.024 -0.137 +14° 59' 45.40" 1.000E-01 0.500 F 0.149 -0.015 18.3 V 0.70 0.94 o 691 0.28 Yes Yes
2021GK1 O C K 2021-04-09.31104 1.000E-05 11:56:40.370 1.500E-01 0.500 F 0.278 -0.317 -11° 11' 24.60" 1.000E-01 0.500 F -0.002 0.063 20.3 R 0.70 -0.01 o 691 0.65 Yes Yes
2021GK1 O C K 2021-04-09.31500 1.000E-05 11:56:39.640 1.500E-01 0.500 F 0.278 0.166 -11° 11' 25.40" 1.000E-01 0.500 F -0.002 0.413 20.6 R 0.70 0.29 o 691 0.89 Yes Yes
2021GK1 O C K 2021-04-09.31896 1.000E-05 11:56:38.850 1.500E-01 0.500 F 0.278 -0.278 -11° 11' 26.80" 1.000E-01 0.500 F -0.002 0.137 20.7 R 0.70 0.39 o 691 0.62 Yes Yes
2021GX4 O C K 2021-04-09.46943 1.000E-05 15:40:59.500 1.500E-01 0.500 F -0.085 -0.449 -16° 14' 10.90" 1.000E-01 0.500 F 0.267 0.275 o 691 1.06 Yes No
2021GX4 O C K 2021-04-09.48028 1.000E-05 15:41:00.710 1.500E-01 0.500 F -0.085 0.131 -16° 14' 16.50" 1.000E-01 0.500 F 0.267 0.110 o 691 0.35 Yes No
2021GX4 O C K 2021-04-09.49113 1.000E-05 15:41:01.880 1.500E-01 0.500 F -0.085 0.101 -16° 14' 21.90" 1.000E-01 0.500 F 0.267 0.124 o 691 0.32 Yes No
2021GW4 O C K 2021-04-10.29888 1.000E-05 10:33:22.490 1.500E-01 0.500 F 0.303 -0.003 +06° 18' 32.00" 1.000E-01 0.500 F 0.145 -0.086 20.2 R 0.70 -0.16 o 691 0.18 Yes Yes
2021GW4 O C K 2021-04-10.30369 1.000E-05 10:33:21.320 1.500E-01 0.500 F 0.303 0.332 +06° 18' 40.00" 1.000E-01 0.500 F 0.145 -0.172 20.5 R 0.70 0.14 o 691 0.76 Yes Yes
2021GW4 O C K 2021-04-10.30851 1.000E-05 10:33:20.150 1.500E-01 0.500 F 0.303 0.266 +06° 18' 48.40" 1.000E-01 0.500 F 0.145 0.163 20.2 R 0.70 -0.15 o 691 0.65 Yes Yes
2021GK1 O C K 2021-04-10.31997 1.000E-05 11:54:53.660 1.500E-01 0.500 F 0.078 0.172 -11° 17' 54.10" 1.000E-01 0.500 F 0.051 0.723 20.1 R 0.70 -0.17 o 691 1.49 Yes Yes
2021GK1 O C K 2021-04-10.32534 1.000E-05 11:54:52.600 1.500E-01 0.500 F 0.078 0.095 -11° 17' 56.20" 1.000E-01 0.500 F 0.051 0.110 20.0 R 0.70 -0.27 o 691 0.29 Yes Yes
2021GK1 O C K 2021-04-10.33071 1.000E-05 11:54:51.560 1.500E-01 0.500 F 0.078 0.203 -11° 17' 57.80" 1.000E-01 0.500 F 0.051 -0.051 20.4 R 0.70 0.13 o 691 0.42 Yes Yes
2021GG5 O C K 2021-04-10.34338 1.000E-05 13:02:53.840 1.500E-01 0.500 F 0.379 0.713 -01° 22' 53.20" 1.000E-01 0.500 F 0.234 0.571 21.3 R 0.70 0.27 o 691 1.87 Yes Yes
2021GG5 O C K 2021-04-10.35218 1.000E-05 13:02:56.150 1.500E-01 0.500 F 0.379 -0.392 -01° 23' 24.70" 1.000E-01 0.500 F 0.234 0.191 21.4 R 0.70 0.37 o 691 0.93 Yes Yes
2021GG5 O C K 2021-04-10.36097 1.000E-05 13:02:58.600 1.500E-01 0.500 F 0.379 0.538 -01° 23' 55.50" 1.000E-01 0.500 F 0.234 0.494 21.3 R 0.70 0.27 o 691 1.51 Yes Yes
2021GY9 O C K 2021-04-10.38671 1.000E-05 13:20:58.440 1.500E-01 0.500 F 0.216 1.105 -16° 25' 31.70" 1.000E-01 0.500 F 0.127 0.170 o 691 2.28 Yes No
2021GY9 O C K 2021-04-10.39427 1.000E-05 13:20:57.050 1.500E-01 0.500 F 0.216 0.950 -16° 25' 36.60" 1.000E-01 0.500 F 0.127 -0.745 o 691 2.44 Yes No
2021GY9 O C K 2021-04-10.40184 1.000E-05 13:20:55.690 1.500E-01 0.500 F 0.216 1.183 -16° 25' 40.60" 1.000E-01 0.500 F 0.127 -0.788 o 691 2.88 Yes No
2019HH4 O C K 2021-04-10.42290 1.000E-05 15:40:05.740 1.500E-01 0.500 F 0.194 -0.234 -11° 20' 57.60" 1.000E-01 0.500 F 0.242 -0.558 21.6 R 0.70 -0.25 o 691 1.22 Yes Yes
2019HH4 O C K 2021-04-10.44772 1.000E-05 15:40:04.690 1.500E-01 0.500 F 0.194 -0.152 -11° 20' 16.20" 1.000E-01 0.500 F 0.242 -0.002 21.9 R 0.70 0.06 o 691 0.31 Yes Yes
2021GW4 O C K 2021-04-11.12457 1.000E-05 10:36:14.450 1.500E-01 0.500 F 0.243 -0.224 +07° 02' 46.80" 1.000E-01 0.500 F 0.221 0.158 19.3 R 0.70 -0.09 o 691 0.56 Yes Yes
2021GW4 O C K 2021-04-11.12684 1.000E-05 10:36:13.720 1.500E-01 0.500 F 0.243 -0.210 +07° 02' 59.30" 1.000E-01 0.500 F 0.221 0.199 19.5 R 0.70 0.11 o 691 0.59 Yes Yes
2021GW4 O C K 2021-04-11.12910 1.000E-05 10:36:12.960 1.500E-01 0.500 F 0.243 -0.532 +07° 03' 11.80" 1.000E-01 0.500 F 0.221 0.287 19.4 R 0.70 0.02 o 691 1.24 Yes Yes
2021GA6 O C K 2021-04-11.15593 1.000E-05 10:14:23.530 1.500E-01 0.500 F 0.213 -0.403 +27° 08' 01.10" 1.000E-01 0.500 F 0.251 -0.013 20.6 R 0.70 -0.55 o 691 0.82 Yes Yes
2021GA6 O C K 2021-04-11.16667 1.000E-05 10:14:23.140 1.500E-01 0.500 F 0.213 0.100 +27° 07' 28.20" 1.000E-01 0.500 F 0.251 0.285 21.7 R 0.70 0.55 o 691 0.61 Yes Yes
2021GC9 O C K 2021-04-11.37890 1.000E-05 15:27:16.680 1.500E-01 0.500 F 0.070 0.477 -20° 06' 54.90" 1.000E-01 0.500 F -0.090 -0.147 o 691 1.00 Yes No
2021GC9 O C K 2021-04-11.38875 1.000E-05 15:27:16.080 1.500E-01 0.500 F 0.070 -0.741 -20° 06' 50.10" 1.000E-01 0.500 F -0.090 -0.521 21.6 R 0.70 -0.26 o 691 1.82 Yes Yes
2021GC9 O C K 2021-04-11.39861 1.000E-05 15:27:15.650 1.500E-01 0.500 F 0.070 0.450 -20° 06' 43.80" 1.000E-01 0.500 F -0.090 0.585 21.7 R 0.70 -0.16 o 691 1.48 Yes Yes
2021GT6 O C K 2021-04-11.40881 1.000E-05 15:16:02.170 1.500E-01 0.500 F 0.116 -0.669 -01° 00' 37.10" 1.000E-01 0.500 F 0.265 -0.098 o 691 1.36 Yes No
2021GT6 O C K 2021-04-11.41743 1.000E-05 15:16:03.820 1.500E-01 0.500 F 0.116 -0.133 -01° 00' 35.00" 1.000E-01 0.500 F 0.265 -0.002 21.5 R 0.70 0.36 o 691 0.27 Yes Yes
2021GT6 O C K 2021-04-11.42604 1.000E-05 15:16:05.470 1.500E-01 0.500 F 0.116 0.407 -01° 00' 33.10" 1.000E-01 0.500 F 0.265 -0.105 21.6 R 0.70 0.46 o 691 0.84 Yes Yes
2021GB6 O C H 2021-04-13.36116 1.000E-05 12:54:34.810 1.500E-01 0.500 F 0.224 -0.271 -21° 49' 06.30" 1.000E-01 0.500 F -0.155 0.066 20.1 R 0.70 0.36 o 691 0.56 Yes Yes
2021GB6 O C H 2021-04-13.36266 1.000E-05 12:54:34.560 1.500E-01 0.500 F 0.224 -0.278 -21° 49' 03.60" 1.000E-01 0.500 F -0.155 0.330 19.8 R 0.70 0.06 o 691 0.87 Yes Yes
2021GB6 O C H 2021-04-13.36415 1.000E-05 12:54:34.350 1.500E-01 0.500 F 0.224 0.248 -21° 49' 01.60" 1.000E-01 0.500 F -0.155 -0.091 19.8 R 0.70 0.06 o 691 0.53 Yes Yes
2021GV2 O C K 2021-04-13.41664 1.000E-05 14:16:22.330 1.500E-01 0.500 F 0.324 0.078 +05° 40' 15.60" 1.000E-01 0.500 F 0.257 0.450 21.4 R 0.70 0.19 o 691 0.92 Yes Yes
2021GV2 O C K 2021-04-13.43015 1.000E-05 14:16:24.090 1.500E-01 0.500 F 0.324 0.193 +05° 39' 55.50" 1.000E-01 0.500 F 0.257 0.237 21.3 R 0.70 0.09 o 691 0.61 Yes Yes
2021GV2 O C K 2021-04-13.44368 1.000E-05 14:16:25.930 1.500E-01 0.500 F 0.324 0.823 +05° 39' 34.90" 1.000E-01 0.500 F 0.257 -0.378 21.5 R 0.70 0.29 o 691 1.82 Yes Yes
2021GY3 O C K 2021-04-13.45885 1.000E-05 14:30:45.080 1.500E-01 0.500 F 0.043 0.029 +17° 07' 33.50" 1.000E-01 0.500 F 0.364 -0.302 20.2 R 0.70 -0.19 o 691 0.61 Yes Yes
2021GT6 O C K 2021-04-13.46345 1.000E-05 15:23:14.430 1.500E-01 0.500 F 0.200 0.613 -00° 52' 34.40" 1.000E-01 0.500 F 0.323 -0.227 21.6 R 0.70 0.64 o 691 1.31 Yes Yes
2021GY3 O C K 2021-04-13.47210 1.000E-05 14:30:42.420 1.500E-01 0.500 F 0.043 -0.016 +17° 07' 48.50" 1.000E-01 0.500 F 0.364 0.135 20.7 R 0.70 0.31 o 691 0.27 Yes Yes
2021GT6 O C K 2021-04-13.47659 1.000E-05 15:23:17.180 1.500E-01 0.500 F 0.200 0.005 -00° 52' 31.10" 1.000E-01 0.500 F 0.323 -0.076 21.1 R 0.70 0.14 o 691 0.15 Yes Yes
2021GY3 O C K 2021-04-13.48519 1.000E-05 14:30:39.800 1.500E-01 0.500 F 0.043 -0.087 +17° 08' 02.90" 1.000E-01 0.500 F 0.364 0.207 20.3 R 0.70 -0.09 o 691 0.45 Yes Yes
2021GT6 O C K 2021-04-13.48964 1.000E-05 15:23:19.920 1.500E-01 0.500 F 0.200 -0.601 -00° 52' 28.20" 1.000E-01 0.500 F 0.323 -0.306 21.1 R 0.70 0.14 o 691 1.35 Yes Yes
2021GC O C K 2021-04-14.22698 1.000E-05 10:44:21.930 1.500E-01 0.500 F 0.178 0.064 -22° 04' 04.50" 1.000E-01 0.500 F -0.113 0.376 22.1 R 0.70 1.01 o 691 0.78 Yes Yes
2021GC O C K 2021-04-14.23694 1.000E-05 10:44:22.440 1.500E-01 0.500 F 0.178 -0.709 -22° 04' 13.50" 1.000E-01 0.500 F -0.113 -1.227 o 691 2.89 Yes No
2021GF5 O C K 2021-04-14.25067 1.000E-05 10:25:26.220 1.500E-01 0.500 F 0.089 -0.310 +18° 52' 26.30" 1.000E-01 0.500 F 0.351 -0.112 21.9 R 0.70 0.47 o 691 0.79 Yes Yes
2021GF5 O C K 2021-04-14.26918 1.000E-05 10:25:28.910 1.500E-01 0.500 F 0.089 -0.217 +18° 54' 20.50" 1.000E-01 0.500 F 0.351 -0.015 o 691 0.52 Yes No
2021GF5 O C K 2021-04-14.28766 1.000E-05 10:25:31.680 1.500E-01 0.500 F 0.089 0.802 +18° 56' 14.20" 1.000E-01 0.500 F 0.351 -0.010 o 691 1.91 Yes No
2021FP3 O C K 2021-04-14.40378 1.000E-05 15:04:11.580 1.500E-01 0.500 F 0.138 -0.092 +10° 12' 32.40" 1.000E-01 0.500 F 0.161 0.254 20.3 R 0.70 0.01 o 691 0.56 Yes Yes
2021FP3 O C K 2021-04-14.40939 1.000E-05 15:04:11.140 1.500E-01 0.500 F 0.138 -0.011 +10° 12' 23.20" 1.000E-01 0.500 F 0.161 -0.053 20.4 R 0.70 0.11 o 691 0.11 Yes Yes
2021FP3 O C K 2021-04-14.41501 1.000E-05 15:04:10.690 1.500E-01 0.500 F 0.138 -0.085 +10° 12' 14.00" 1.000E-01 0.500 F 0.161 -0.335 o 691 0.72 Yes No
2021GK1 O C 2021-04-17.12937 1.000E-05 11:41:36.800 1.500E-01 0.500 F 0.163 -0.375 -12° 11' 54.10" 1.000E-01 0.500 F 0.050 -0.141 20.3 V 0.70 -0.08 o 691 0.80 Yes Yes
2021HE O C K 2021-04-17.13196 1.000E-05 12:02:23.480 1.500E-01 0.500 F 0.307 -0.190 -20° 59' 21.70" 1.000E-01 0.500 F 0.011 -0.755 o 691 1.57 Yes No
2021GK1 O C 2021-04-17.13978 1.000E-05 11:41:34.290 1.500E-01 0.500 F 0.163 -0.399 -12° 12' 02.50" 1.000E-01 0.500 F 0.050 -0.048 20.6 V 0.70 0.22 o 691 0.81 Yes Yes
2021HE O C K 2021-04-17.14103 1.000E-05 12:02:23.670 1.500E-01 0.500 F 0.307 -0.039 -20° 58' 31.40" 1.000E-01 0.500 F 0.011 -0.051 20.1 R 0.70 -0.19 o 691 0.13 Yes Yes
2021GK1 O C 2021-04-17.14597 1.000E-05 11:41:32.790 1.500E-01 0.500 F 0.163 -0.191 -12° 12' 07.20" 1.000E-01 0.500 F 0.050 0.197 20.4 V 0.70 0.02 o 691 0.55 Yes Yes
2021HE O C K 2021-04-17.14722 1.000E-05 12:02:23.820 1.500E-01 0.500 F 0.307 0.396 -20° 57' 57.50" 1.000E-01 0.500 F 0.011 -0.039 20.2 R 0.70 -0.09 o 691 0.80 Yes Yes
2012HO1 O C K 2021-04-17.16319 1.000E-05 12:40:51.160 1.500E-01 0.500 F 0.302 0.754 -05° 49' 21.10" 1.000E-01 0.500 F 0.153 0.551 20.3 R 0.70 0.27 o 691 1.88 Yes Yes
2012HO1 O C K 2021-04-17.17507 1.000E-05 12:40:51.610 1.500E-01 0.500 F 0.302 0.126 -05° 50' 14.40" 1.000E-01 0.500 F 0.153 -0.071 20.6 R 0.70 0.57 o 691 0.29 Yes Yes
2012HO1 O C K 2021-04-17.18694 1.000E-05 12:40:52.060 1.500E-01 0.500 F 0.302 -0.335 -05° 51' 07.30" 1.000E-01 0.500 F 0.153 -0.344 20.2 R 0.70 0.17 o 691 0.97 Yes Yes
2021FN4 O C 2021-04-17.20838 1.000E-05 12:27:54.150 1.500E-01 0.500 F 0.156 -0.390 +20° 40' 46.00" 1.000E-01 0.500 F 0.299 0.147 21.1 V 0.70 0.09 o 691 0.84 Yes Yes
2021HH O C K 2021-04-17.21048 1.000E-05 14:05:18.240 1.500E-01 0.500 F 0.314 -0.433 -10° 07' 26.50" 1.000E-01 0.500 F 0.129 0.548 20.8 R 0.70 0.01 o 691 1.44 Yes Yes
2021FN4 O C 2021-04-17.22023 1.000E-05 12:27:53.020 1.500E-01 0.500 F 0.156 -0.598 +20° 40' 52.90" 1.000E-01 0.500 F 0.299 -0.225 21.6 V 0.70 0.59 o 691 1.28 Yes Yes
2021HH O C K 2021-04-17.22232 1.000E-05 14:05:18.090 1.500E-01 0.500 F 0.314 -0.127 -10° 06' 26.30" 1.000E-01 0.500 F 0.129 0.243 20.9 R 0.70 0.11 o 691 0.56 Yes Yes
2021FN4 O C 2021-04-17.23204 1.000E-05 12:27:51.900 1.500E-01 0.500 F 0.158 -0.657 +20° 41' 01.10" 1.000E-01 0.500 F 0.286 0.824 21.8 V 0.70 0.79 o 691 2.12 Yes Yes
2021HH O C K 2021-04-17.23414 1.000E-05 14:05:17.900 1.500E-01 0.500 F 0.314 -0.198 -10° 05' 25.70" 1.000E-01 0.500 F 0.129 0.276 21.5 R 0.70 0.71 o 691 0.70 Yes Yes
2021GN16 O C K 2021-04-17.27976 1.000E-05 15:56:18.000 1.500E-01 0.500 F 0.168 -0.701 -06° 58' 26.20" 1.000E-01 0.500 F 0.195 0.129 21.4 R 0.70 0.10 o 691 1.44 Yes Yes
2021GN16 O C K 2021-04-17.29157 1.000E-05 15:56:16.580 1.500E-01 0.500 F 0.168 -0.583 -06° 57' 24.60" 1.000E-01 0.500 F 0.195 -0.901 o 691 2.17 Yes No
2021GN16 O C K 2021-04-17.30339 1.000E-05 15:56:15.170 1.500E-01 0.500 F 0.168 -0.227 -06° 56' 20.90" 1.000E-01 0.500 F 0.195 0.099 21.9 R 0.70 0.60 o 691 0.50 Yes Yes
2021HR O C K 2021-04-17.34179 1.000E-05 15:10:23.660 1.500E-01 0.500 F 0.141 0.276 -12° 21' 52.70" 1.000E-01 0.500 F 0.212 -0.286 21.1 R 0.70 0.10 o 691 0.80 Yes Yes
2021GR16 O C K 2021-04-17.34810 1.000E-05 15:21:43.670 1.500E-01 0.500 F 0.244 -0.160 +07° 57' 25.80" 1.000E-01 0.500 F 0.018 0.055 o 691 0.34 Yes No
2021HR O C K 2021-04-17.35707 1.000E-05 15:10:27.090 1.500E-01 0.500 F 0.141 0.375 -12° 23' 10.20" 1.000E-01 0.500 F 0.212 -0.241 21.2 R 0.70 0.20 o 691 0.90 Yes Yes
2021GR16 O C K 2021-04-17.36340 1.000E-05 15:21:42.760 1.500E-01 0.500 F 0.244 0.244 +07° 57' 34.50" 1.000E-01 0.500 F 0.018 -0.550 21.7 R 0.70 0.00 o 691 1.22 Yes Yes
2021HR O C K 2021-04-17.37240 1.000E-05 15:10:30.520 1.500E-01 0.500 F 0.141 0.417 -12° 24' 28.00" 1.000E-01 0.500 F 0.212 -0.473 21.5 R 0.70 0.50 o 691 1.27 Yes Yes
2021GR16 O C K 2021-04-17.37872 1.000E-05 15:21:41.790 1.500E-01 0.500 F 0.244 -0.216 +07° 57' 44.90" 1.000E-01 0.500 F 0.018 0.545 21.3 R 0.70 -0.40 o 691 1.19 Yes Yes
2021GX16 O C K 2021-04-17.43632 1.000E-05 15:56:47.700 1.500E-01 0.500 F 0.200 -0.256 -04° 19' 11.70" 1.000E-01 0.500 F 0.330 0.255 o 691 0.73 Yes No
2021GX16 O C K 2021-04-17.44253 1.000E-05 15:56:48.270 1.500E-01 0.500 F 0.200 -0.270 -04° 19' 07.10" 1.000E-01 0.500 F 0.330 -0.226 21.3 R 0.70 -0.21 o 691 0.71 Yes Yes
2021GX16 O C K 2021-04-17.44873 1.000E-05 15:56:48.830 1.500E-01 0.500 F 0.200 -0.427 -04° 19' 02.30" 1.000E-01 0.500 F 0.330 -0.500 21.6 R 0.70 0.10 o 691 1.32 Yes Yes
2021HE O C K 2021-04-18.13142 1.000E-05 12:03:02.050 1.500E-01 0.500 F 0.269 -0.044 -19° 24' 22.50" 1.000E-01 0.500 F 0.057 -0.265 20.2 R 0.70 -0.02 o 691 0.54 Yes Yes
2021HE O C K 2021-04-18.14827 1.000E-05 12:03:02.420 1.500E-01 0.500 F 0.269 -0.606 -19° 22' 44.00" 1.000E-01 0.500 F 0.057 0.159 20.3 R 0.70 0.08 o 691 1.26 Yes Yes
2021HE O C K 2021-04-18.16514 1.000E-05 12:03:02.840 1.500E-01 0.500 F 0.269 -0.200 -19° 21' 05.70" 1.000E-01 0.500 F 0.057 0.016 20.2 R 0.70 -0.02 o 691 0.40 Yes Yes
2021HS O C K 2021-04-18.18258 1.000E-05 12:29:14.020 1.500E-01 0.500 F 0.427 0.290 -27° 37' 46.50" 1.000E-01 0.500 F 0.165 -0.038 o 691 0.59 Yes No
2021GK1 O C K 2021-04-18.18568 1.000E-05 11:39:04.560 1.500E-01 0.500 F 0.120 -0.182 -12° 23' 02.30" 1.000E-01 0.500 F 0.059 0.171 19.9 R 0.70 -0.03 o 691 0.50 Yes Yes
2021HS O C K 2021-04-18.19813 1.000E-05 12:29:12.200 1.500E-01 0.500 F 0.427 0.250 -27° 37' 37.30" 1.000E-01 0.500 F 0.165 0.210 19.9 R 0.70 -0.66 o 691 0.66 Yes Yes
2021GK1 O C K 2021-04-18.20122 1.000E-05 11:39:00.340 1.500E-01 0.500 F 0.120 -0.119 -12° 23' 13.80" 1.000E-01 0.500 F 0.059 0.011 20.1 R 0.70 0.18 o 691 0.24 Yes Yes
2021HS O C K 2021-04-18.21368 1.000E-05 12:29:10.370 1.500E-01 0.500 F 0.427 0.110 -27° 37' 26.50" 1.000E-01 0.500 F 0.165 2.014 18.6 R 0.70 -1.96 o 691 4.02 No Yes
2021GK1 O C K 2021-04-18.21678 1.000E-05 11:38:56.100 1.500E-01 0.500 F 0.120 0.190 -12° 23' 24.20" 1.000E-01 0.500 F 0.059 0.340 19.5 R 0.70 -0.42 o 691 0.78 Yes Yes
2021FN4 O C K 2021-04-18.31464 1.000E-05 12:26:26.810 1.500E-01 0.500 F 0.158 -0.233 +20° 51' 19.00" 1.000E-01 0.500 F 0.286 -0.135 20.7 R 0.70 0.14 o 691 0.54 Yes Yes
2021FN4 O C K 2021-04-18.34087 1.000E-05 12:26:24.320 1.500E-01 0.500 F 0.158 0.026 +20° 51' 32.60" 1.000E-01 0.500 F 0.286 -0.025 20.9 R 0.70 0.34 o 691 0.07 Yes Yes
2021GK1 O C K 2021-04-19.18966 1.000E-05 11:36:39.190 1.500E-01 0.500 F 0.120 0.011 -12° 34' 27.50" 1.000E-01 0.500 F 0.059 0.333 19.7 R 0.70 -0.17 o 691 0.67 Yes Yes
2021HB1 O C K 2021-04-19.19447 1.000E-05 11:04:45.420 1.500E-01 0.500 F 0.163 0.234 +17° 42' 25.30" 1.000E-01 0.500 F 0.214 -0.130 21.8 R 0.70 0.71 o 691 0.55 Yes Yes
2021GK1 O C K 2021-04-19.20645 1.000E-05 11:36:34.400 1.500E-01 0.500 F 0.120 0.041 -12° 34' 39.90" 1.000E-01 0.500 F 0.059 0.871 19.7 R 0.70 -0.17 o 691 1.75 Yes Yes
2021HB1 O C K 2021-04-19.21075 1.000E-05 11:04:37.380 1.500E-01 0.500 F 0.163 -0.071 +17° 41' 57.80" 1.000E-01 0.500 F 0.214 -0.360 21.6 R 0.70 0.51 o 691 0.74 Yes Yes
2021GK1 O C K 2021-04-19.22306 1.000E-05 11:36:29.640 1.500E-01 0.500 F 0.120 0.099 -12° 34' 52.50" 1.000E-01 0.500 F 0.059 0.306 20.2 R 0.70 0.33 o 691 0.64 Yes Yes
2021HB1 O C K 2021-04-19.22740 1.000E-05 11:04:29.100 1.500E-01 0.500 F 0.163 -1.053 +17° 41' 29.60" 1.000E-01 0.500 F 0.214 -0.261 22.0 R 0.70 0.91 o 691 2.30 Yes Yes
2021FN4 O C 2021-04-19.24222 1.000E-05 12:25:14.860 1.500E-01 0.500 F 0.158 0.207 +20° 59' 43.90" 1.000E-01 0.500 F 0.286 -0.586 20.4 V 0.70 -0.52 o 691 1.25 Yes Yes
2021FN4 O C 2021-04-19.24885 1.000E-05 12:25:14.140 1.500E-01 0.500 F 0.158 -0.601 +20° 59' 48.00" 1.000E-01 0.500 F 0.286 -0.025 20.9 V 0.70 -0.02 o 691 1.21 Yes Yes
2021FN4 O C 2021-04-19.25327 1.000E-05 12:25:13.700 1.500E-01 0.500 F 0.158 -0.578 +20° 59' 50.10" 1.000E-01 0.500 F 0.286 -0.269 21.1 V 0.70 0.18 o 691 1.28 Yes Yes
2021GY3 O C K 2021-04-19.26864 1.000E-05 14:14:39.910 1.500E-01 0.500 F 0.150 -0.146 +18° 25' 22.30" 1.000E-01 0.500 F 0.283 -0.327 21.4 R 0.70 0.57 o 691 0.72 Yes Yes
2021GY3 O C K 2021-04-19.28586 1.000E-05 14:14:37.300 1.500E-01 0.500 F 0.150 -0.139 +18° 25' 31.90" 1.000E-01 0.500 F 0.283 0.103 21.3 R 0.70 0.47 o 691 0.35 Yes Yes
2021GY3 O C K 2021-04-19.30308 1.000E-05 14:14:34.680 1.500E-01 0.500 F 0.150 -0.243 +18° 25' 40.70" 1.000E-01 0.500 F 0.283 -0.168 21.5 R 0.70 0.66 o 691 0.60 Yes Yes
2021HF1 O C K 2021-04-19.31105 1.000E-05 13:55:27.110 1.500E-01 0.500 F 0.157 0.656 -01° 16' 46.70" 1.000E-01 0.500 F 0.249 -0.457 21.7 R 0.70 0.16 o 691 1.64 Yes Yes
2021HF1 O C K 2021-04-19.32633 1.000E-05 13:55:30.630 1.500E-01 0.500 F 0.157 0.348 -01° 17' 26.00" 1.000E-01 0.500 F 0.249 -0.123 o 691 0.75 Yes No
2021HP1 O C K 2021-04-19.36062 1.000E-05 16:56:23.430 1.500E-01 0.500 F -0.025 -0.080 -08° 47' 06.40" 1.000E-01 0.500 F 0.080 -0.158 o 691 0.36 Yes No
2021HP1 O C K 2021-04-19.38913 1.000E-05 16:56:26.420 1.500E-01 0.500 F -0.025 -0.257 -08° 46' 23.00" 1.000E-01 0.500 F 0.080 0.679 o 691 1.46 Yes No
2018UQ1 O C K 2021-04-19.42587 1.000E-05 15:39:20.020 1.500E-01 0.500 F 0.176 0.308 -22° 57' 23.50" 1.000E-01 0.500 F -0.039 0.678 21.0 R 0.70 -0.32 o 691 1.49 Yes Yes
2018UQ1 O C K 2021-04-19.44276 1.000E-05 15:39:17.220 1.500E-01 0.500 F 0.176 0.666 -22° 57' 10.80" 1.000E-01 0.500 F -0.039 1.094 20.7 R 0.70 -0.62 o 691 2.57 Yes Yes
2021GK1 O C K 2021-04-20.12515 1.000E-05 11:34:26.560 1.500E-01 0.500 F 0.050 -0.884 -12° 45' 54.30" 1.000E-01 0.500 F 0.056 0.455 o 691 1.99 Yes No
2021HC2 O C K 2021-04-20.14297 1.000E-05 13:14:27.680 1.500E-01 0.500 F 0.439 -1.302 -10° 45' 09.80" 1.000E-01 0.500 F 0.080 0.687 20.8 R 0.70 -0.22 o 691 3.02 Yes Yes
2021GK1 O C K 2021-04-20.15599 1.000E-05 11:34:17.850 1.500E-01 0.500 F 0.050 -0.256 -12° 46' 24.80" 1.000E-01 0.500 F 0.056 0.508 19.6 R 0.70 -0.22 o 691 1.14 Yes Yes
2021HC2 O C K 2021-04-20.16283 1.000E-05 13:14:28.770 1.500E-01 0.500 F 0.439 -1.508 -10° 46' 29.70" 1.000E-01 0.500 F 0.080 0.290 o 691 3.13 Yes No
2021GK1 O C K 2021-04-20.17584 1.000E-05 11:34:11.990 1.500E-01 0.500 F 0.050 -0.863 -12° 46' 43.30" 1.000E-01 0.500 F 0.056 0.327 19.8 R 0.70 -0.02 o 691 1.85 Yes Yes
2021HC2 O C K 2021-04-20.18270 1.000E-05 13:14:29.600 1.500E-01 0.500 F 0.439 -2.172 -10° 47' 47.50" 1.000E-01 0.500 F 0.080 0.982 20.9 R 0.70 -0.13 o 691 4.68 No Yes
2021GY1 O C K 2021-04-20.19649 1.000E-05 11:58:05.660 1.500E-01 0.500 F 0.239 -0.221 +03° 58' 00.10" 1.000E-01 0.500 F 0.205 0.352 20.6 R 0.70 -0.05 o 691 0.84 Yes Yes
2021GP3 O C K 2021-04-20.20886 1.000E-05 12:16:27.570 1.500E-01 0.500 F 0.256 -0.158 +07° 09' 26.90" 1.000E-01 0.500 F 0.268 0.059 20.3 R 0.70 0.51 o 691 0.35 Yes Yes
2021GY1 O C K 2021-04-20.21475 1.000E-05 11:58:01.690 1.500E-01 0.500 F 0.239 -0.309 +03° 58' 03.80" 1.000E-01 0.500 F 0.205 0.133 20.6 R 0.70 -0.05 o 691 0.68 Yes Yes
2021GP3 O C K 2021-04-20.22711 1.000E-05 12:16:16.450 1.500E-01 0.500 F 0.256 0.058 +07° 09' 08.10" 1.000E-01 0.500 F 0.268 -0.178 20.5 R 0.70 0.70 o 691 0.38 Yes Yes
2021GY1 O C K 2021-04-20.23301 1.000E-05 11:57:57.730 1.500E-01 0.500 F 0.239 -0.149 +03° 58' 07.40" 1.000E-01 0.500 F 0.205 -0.128 20.9 R 0.70 0.25 o 691 0.40 Yes Yes
2021GP3 O C K 2021-04-20.24536 1.000E-05 12:16:05.300 1.500E-01 0.500 F 0.256 -0.126 +07° 08' 49.70" 1.000E-01 0.500 F 0.268 0.152 20.1 R 0.70 0.30 o 691 0.40 Yes Yes
2021HA2 O C K 2021-04-20.25707 1.000E-05 14:21:57.970 1.500E-01 0.500 F 0.115 0.375 -02° 03' 51.40" 1.000E-01 0.500 F 0.208 -0.172 20.5 R 0.70 0.76 o 691 0.86 Yes Yes
2021HA2 O C K 2021-04-20.26739 1.000E-05 14:21:47.650 1.500E-01 0.500 F 0.115 -0.102 -02° 03' 41.70" 1.000E-01 0.500 F 0.208 0.167 20.1 R 0.70 0.35 o 691 0.40 Yes Yes
2021HA2 O C K 2021-04-20.27772 1.000E-05 14:21:37.390 1.500E-01 0.500 F 0.115 0.259 -02° 03' 32.50" 1.000E-01 0.500 F 0.208 -0.005 20.0 R 0.70 0.25 o 691 0.54 Yes Yes
2021HR1 O C K 2021-04-20.29181 1.000E-05 15:56:19.460 1.500E-01 0.500 F 0.129 -0.130 +27° 22' 52.30" 1.000E-01 0.500 F 0.286 -0.200 21.4 R 0.70 0.49 o 691 0.49 Yes Yes
2021HR1 O C K 2021-04-20.29945 1.000E-05 15:56:20.590 1.500E-01 0.500 F 0.129 0.500 +27° 23' 09.70" 1.000E-01 0.500 F 0.286 -0.583 21.6 R 0.70 0.69 o 691 1.56 Yes Yes
2021HR1 O C K 2021-04-20.30709 1.000E-05 15:56:21.620 1.500E-01 0.500 F 0.129 -0.176 +27° 23' 28.00" 1.000E-01 0.500 F 0.286 -0.050 21.1 R 0.70 0.19 o 691 0.37 Yes Yes
2021HV1 O C K 2021-04-20.32250 1.000E-05 18:15:27.610 1.500E-01 0.500 F -0.047 -0.334 +07° 39' 35.00" 1.000E-01 0.500 F 0.228 -0.258 o 691 0.86 Yes No
2021HV1 O C K 2021-04-20.32990 1.000E-05 18:15:17.590 1.500E-01 0.500 F -0.047 -0.111 +07° 38' 54.40" 1.000E-01 0.500 F 0.228 -0.288 o 691 0.62 Yes No
2020TH5 O C K 2021-04-20.33492 1.000E-05 18:07:13.210 1.500E-01 0.500 F -0.043 -0.309 -02° 50' 56.00" 1.000E-01 0.500 F 0.424 -0.148 19.0 R 0.70 0.01 o 691 0.69 Yes Yes
2021HV1 O C K 2021-04-20.33732 1.000E-05 18:15:07.540 1.500E-01 0.500 F -0.047 0.135 +07° 38' 14.10" 1.000E-01 0.500 F 0.228 0.111 o 691 0.35 Yes No
2020TH5 O C K 2021-04-20.34233 1.000E-05 18:07:11.450 1.500E-01 0.500 F -0.043 0.090 -02° 50' 52.40" 1.000E-01 0.500 F 0.424 -0.261 19.3 R 0.70 0.31 o 691 0.56 Yes Yes
2010FF10 O C K 2021-04-20.37636 1.000E-05 12:18:23.210 1.500E-01 0.500 F 0.182 -0.377 +22° 51' 27.30" 1.000E-01 0.500 F 0.213 -0.050 19.3 R 0.70 0.09 o 691 0.77 Yes Yes
2021GF8 O C K 2021-04-20.37974 1.000E-05 11:51:24.940 1.500E-01 0.500 F 0.206 0.172 +28° 39' 41.50" 1.000E-01 0.500 F 0.241 0.017 19.2 R 0.70 -0.16 o 691 0.39 Yes Yes
2021GF8 O C K 2021-04-20.38714 1.000E-05 11:51:22.830 1.500E-01 0.500 F 0.206 -0.060 +28° 37' 37.20" 1.000E-01 0.500 F 0.241 -0.321 19.4 R 0.70 0.04 o 691 0.67 Yes Yes
2010FF10 O C K 2021-04-20.39116 1.000E-05 12:18:21.450 1.500E-01 0.500 F 0.182 -0.119 +22° 52' 43.90" 1.000E-01 0.500 F 0.213 0.057 19.2 R 0.70 -0.01 o 691 0.27 Yes Yes
2021GF8 O C K 2021-04-20.39455 1.000E-05 11:51:20.770 1.500E-01 0.500 F 0.206 -0.086 +28° 35' 33.30" 1.000E-01 0.500 F 0.241 0.293 19.3 R 0.70 -0.06 o 691 0.63 Yes Yes
2021FL3 O C K 2021-04-20.40201 1.000E-05 13:45:13.790 1.500E-01 0.500 F 0.340 0.312 +14° 41' 56.80" 1.000E-01 0.500 F 0.160 0.301 21.7 R 0.70 0.92 o 691 0.89 Yes Yes
2021GY3 O C K 2021-04-20.40617 1.000E-05 14:12:00.870 1.500E-01 0.500 F 0.234 -0.099 +18° 34' 21.00" 1.000E-01 0.500 F 0.295 0.163 20.4 R 0.70 -0.52 o 691 0.39 Yes Yes
2021FL3 O C K 2021-04-20.41062 1.000E-05 13:45:12.640 1.500E-01 0.500 F 0.340 0.123 +14° 41' 40.60" 1.000E-01 0.500 F 0.160 0.188 21.6 R 0.70 0.82 o 691 0.46 Yes Yes
2021GY3 O C K 2021-04-20.41478 1.000E-05 14:11:59.630 1.500E-01 0.500 F 0.234 -0.318 +18° 34' 24.90" 1.000E-01 0.500 F 0.295 0.562 19.5 R 0.70 -1.42 o 691 1.30 Yes Yes
2021FL3 O C K 2021-04-20.42195 1.000E-05 13:45:11.150 1.500E-01 0.500 F 0.340 0.077 +14° 41' 19.50" 1.000E-01 0.500 F 0.160 0.285 21.3 R 0.70 0.52 o 691 0.60 Yes Yes
2021GY3 O C K 2021-04-20.42339 1.000E-05 14:11:58.440 1.500E-01 0.500 F 0.234 0.134 +18° 34' 27.40" 1.000E-01 0.500 F 0.295 -0.417 19.9 R 0.70 -1.02 o 691 0.89 Yes Yes
2014GD50 O C H 2021-04-20.43691 1.000E-05 16:35:50.650 1.500E-01 0.612 F 0.198 -0.153 +21° 51' 39.00" 1.000E-01 0.612 F 0.242 0.120 20.1 R 0.70 -0.03 o 691 0.32 Yes Yes
2014GD50 O C 2021-04-20.43691 1.000E-05 16:35:50.620 1.500E-01 0.612 F 0.198 -0.571 +21° 51' 39.20" 1.000E-01 0.612 F 0.242 0.320 20.4 V 0.70 -0.13 o 691 1.07 Yes Yes
2014GD50 O C H 2021-04-20.44552 1.000E-05 16:35:50.380 1.500E-01 0.612 F 0.198 -0.157 +21° 51' 38.30" 1.000E-01 0.612 F 0.242 0.041 20.2 R 0.70 0.07 o 691 0.27 Yes Yes
2014GD50 O C 2021-04-20.44552 1.000E-05 16:35:50.360 1.500E-01 0.612 F 0.198 -0.435 +21° 51' 38.10" 1.000E-01 0.612 F 0.242 -0.159 20.3 V 0.70 -0.23 o 691 0.76 Yes Yes
2014GD50 O C H 2021-04-20.45407 1.000E-05 16:35:50.130 1.500E-01 0.612 F 0.198 0.090 +21° 51' 37.80" 1.000E-01 0.612 F 0.242 0.178 20.1 R 0.70 -0.03 o 691 0.33 Yes Yes
2014GD50 O C 2021-04-20.45407 1.000E-05 16:35:50.100 1.500E-01 0.612 F 0.198 -0.327 +21° 51' 37.70" 1.000E-01 0.612 F 0.242 0.078 20.2 V 0.70 -0.33 o 691 0.55 Yes Yes
2021CX5 O C K 2021-04-20.46725 1.000E-05 19:41:04.970 1.500E-01 0.500 F -0.048 -0.444 -21° 23' 07.20" 1.000E-01 0.500 F 0.067 -0.440 o 691 1.31 Yes No
2021CX5 O C K 2021-04-20.47407 1.000E-05 19:41:05.210 1.500E-01 0.500 F -0.048 0.456 -21° 22' 55.10" 1.000E-01 0.500 F 0.067 -0.027 o 691 0.95 Yes No
2021CX5 O C K 2021-04-20.48089 1.000E-05 19:41:05.370 1.500E-01 0.500 F -0.048 0.324 -21° 22' 43.50" 1.000E-01 0.500 F 0.067 -0.165 o 691 0.75 Yes No
2021GK1 O C K 2021-04-21.13709 1.000E-05 11:31:44.840 1.500E-01 0.500 F 0.030 -0.215 -12° 59' 45.80" 1.000E-01 0.500 F 0.152 0.149 19.6 R 0.70 -0.16 o 691 0.52 Yes Yes
2021GK1 O C K 2021-04-21.14067 1.000E-05 11:31:43.770 1.500E-01 0.500 F 0.030 -0.157 -12° 59' 49.70" 1.000E-01 0.500 F 0.152 0.104 19.6 R 0.70 -0.16 o 691 0.38 Yes Yes
2021GK1 O C K 2021-04-21.14424 1.000E-05 11:31:42.690 1.500E-01 0.500 F 0.030 -0.209 -12° 59' 53.60" 1.000E-01 0.500 F 0.152 0.011 19.7 R 0.70 -0.06 o 691 0.42 Yes Yes
2021FN4 O C K 2021-04-21.17738 1.000E-05 12:22:37.700 1.500E-01 0.500 F 0.205 -0.173 +21° 15' 51.00" 1.000E-01 0.500 F 0.292 0.024 20.6 R 0.70 0.17 o 691 0.35 Yes Yes
2021FN4 O C K 2021-04-21.18368 1.000E-05 12:22:37.050 1.500E-01 0.500 F 0.205 -0.164 +21° 15' 54.40" 1.000E-01 0.500 F 0.292 0.202 19.9 R 0.70 -0.53 o 691 0.52 Yes Yes
2021FN4 O C K 2021-04-21.18997 1.000E-05 12:22:36.400 1.500E-01 0.500 F 0.205 -0.140 +21° 15' 57.40" 1.000E-01 0.500 F 0.292 0.012 19.9 R 0.70 -0.53 o 691 0.28 Yes Yes
2021GR6 O C K 2021-04-21.22657 1.000E-05 13:34:38.090 1.500E-01 0.500 F 0.209 0.442 -05° 02' 49.10" 1.000E-01 0.500 F -0.006 0.223 20.3 R 0.70 0.35 o 691 1.03 Yes Yes
2021GR6 O C K 2021-04-21.22895 1.000E-05 13:34:37.200 1.500E-01 0.500 F 0.209 0.395 -05° 02' 52.90" 1.000E-01 0.500 F -0.006 0.469 20.2 R 0.70 0.25 o 691 1.27 Yes Yes
2021GR6 O C K 2021-04-21.23134 1.000E-05 13:34:36.300 1.500E-01 0.500 F 0.209 0.254 -05° 02' 57.50" 1.000E-01 0.500 F -0.006 -0.070 20.4 R 0.70 0.45 o 691 0.54 Yes Yes
2021GV7 O C K 2021-04-21.25266 1.000E-05 13:30:20.410 1.500E-01 0.500 F 0.228 0.027 -02° 51' 39.90" 1.000E-01 0.500 F 0.124 -0.141 21.2 R 0.70 0.55 o 691 0.31 Yes Yes
2021GV7 O C K 2021-04-21.26205 1.000E-05 13:30:18.970 1.500E-01 0.500 F 0.228 -0.412 -02° 51' 19.70" 1.000E-01 0.500 F 0.124 0.176 20.9 R 0.70 0.24 o 691 0.97 Yes Yes
2021GV7 O C K 2021-04-21.27144 1.000E-05 13:30:17.580 1.500E-01 0.500 F 0.228 -0.098 -02° 51' 00.50" 1.000E-01 0.500 F 0.124 -0.499 21.0 R 0.70 0.34 o 691 1.07 Yes Yes
2014KB91 O C K 2021-04-21.29168 1.000E-05 15:12:23.700 1.500E-01 0.500 F 0.153 0.008 -14° 36' 27.90" 1.000E-01 0.500 F 0.101 -0.006 o 691 0.02 Yes No
2014KB91 O C K 2021-04-21.30893 1.000E-05 15:12:22.740 1.500E-01 0.500 F 0.153 -0.319 -14° 36' 19.20" 1.000E-01 0.500 F 0.101 -0.031 22.4 R 0.70 0.64 o 691 0.64 Yes Yes
2014KB91 O C K 2021-04-21.32618 1.000E-05 15:12:21.890 1.500E-01 0.500 F 0.153 0.992 -14° 36' 10.30" 1.000E-01 0.500 F 0.101 0.117 21.1 R 0.70 -0.66 o 691 2.00 Yes Yes
2021GU9 O C K 2021-04-21.35963 1.000E-05 14:16:02.620 1.500E-01 0.500 F 0.264 -0.019 +08° 58' 11.00" 1.000E-01 0.500 F 0.309 0.284 22.1 R 0.70 0.32 o 691 0.60 Yes Yes
2021GU9 O C K 2021-04-21.39704 1.000E-05 14:16:09.170 1.500E-01 0.500 F 0.264 0.704 +09° 00' 21.50" 1.000E-01 0.500 F 0.309 -0.858 22.0 R 0.70 0.22 o 691 2.32 Yes Yes
2021EM3 O C K 2021-04-21.46113 1.000E-05 16:41:09.190 1.500E-01 0.500 F 0.117 0.372 +16° 10' 59.20" 1.000E-01 0.500 F 0.291 -0.026 22.0 R 0.70 0.13 o 691 0.77 Yes Yes
2021EM3 O C K 2021-04-21.47871 1.000E-05 16:41:08.970 1.500E-01 0.500 F 0.117 0.835 +16° 10' 24.40" 1.000E-01 0.500 F 0.291 -0.693 22.4 R 0.70 0.53 o 691 2.24 Yes Yes
2014GD50 O C K 2021-04-23.28416 1.000E-05 16:34:22.560 1.500E-01 0.500 F 0.163 -0.250 +21° 45' 28.30" 1.000E-01 0.500 F 0.266 0.271 19.7 R 0.70 -0.19 o 691 0.74 Yes Yes
2014GD50 O C K 2021-04-23.29142 1.000E-05 16:34:22.230 1.500E-01 0.500 F 0.163 -0.324 +21° 45' 27.20" 1.000E-01 0.500 F 0.266 0.389 19.8 R 0.70 -0.09 o 691 1.01 Yes Yes
2014GD50 O C K 2021-04-23.29869 1.000E-05 16:34:21.900 1.500E-01 0.500 F 0.163 -0.362 +21° 45' 25.40" 1.000E-01 0.500 F 0.266 -0.178 20.0 R 0.70 0.11 o 691 0.81 Yes Yes
2014QZ432 O C 2021-04-23.30784 1.000E-05 15:31:53.180 1.500E-01 0.500 F -0.034 0.188 -17° 19' 32.90" 1.000E-01 0.500 F 0.171 -0.378 20.5 R 0.70 0.51 o 691 0.85 Yes Yes
2014QZ432 O C 2021-04-23.31511 1.000E-05 15:31:53.120 1.500E-01 0.500 F -0.034 -0.082 -17° 19' 31.10" 1.000E-01 0.500 F 0.171 -0.190 20.6 R 0.70 0.61 o 691 0.41 Yes Yes
2014QZ432 O C 2021-04-23.32238 1.000E-05 15:31:53.060 1.500E-01 0.500 F -0.034 -0.341 -17° 19' 29.30" 1.000E-01 0.500 F 0.171 -0.010 20.8 R 0.70 0.81 o 691 0.68 Yes Yes
2021CT5 O C K 2021-04-23.33191 1.000E-05 18:50:47.740 1.500E-01 0.500 F 0.093 -0.220 +28° 34' 22.50" 1.000E-01 0.500 F 0.257 -0.089 19.9 R 0.70 0.72 o 691 0.48 Yes Yes
2021CT5 O C K 2021-04-23.33540 1.000E-05 18:50:47.630 1.500E-01 0.500 F 0.093 -0.119 +28° 34' 12.00" 1.000E-01 0.500 F 0.257 -0.511 19.7 R 0.70 0.52 o 691 1.06 Yes Yes
2021CT5 O C K 2021-04-23.34414 1.000E-05 18:50:47.330 1.500E-01 0.500 F 0.093 -0.154 +28° 33' 47.50" 1.000E-01 0.500 F 0.257 0.241 19.6 R 0.70 0.42 o 691 0.58 Yes Yes
2020TH5 O C K 2021-04-23.35592 1.000E-05 17:55:52.030 1.500E-01 0.500 F -0.049 -0.256 -02° 27' 20.50" 1.000E-01 0.500 F 0.226 -0.891 18.7 R 0.70 -0.29 o 691 1.87 Yes Yes
2020TH5 O C K 2021-04-23.36100 1.000E-05 17:55:50.850 1.500E-01 0.500 F -0.049 -0.036 -02° 27' 17.60" 1.000E-01 0.500 F 0.226 -0.116 19.0 R 0.70 0.01 o 691 0.24 Yes Yes
2021GQ6 O C K 2021-04-23.37042 1.000E-05 14:43:03.020 1.500E-01 0.500 F 0.026 -0.341 -17° 45' 49.20" 1.000E-01 0.500 F 0.110 0.151 19.6 R 0.70 0.06 o 691 0.75 Yes Yes
2021GQ6 O C K 2021-04-23.38035 1.000E-05 14:43:01.080 1.500E-01 0.500 F 0.026 -0.161 -17° 46' 03.70" 1.000E-01 0.500 F 0.110 0.276 19.4 R 0.70 -0.14 o 691 0.64 Yes Yes
2021GQ6 O C K 2021-04-23.39028 1.000E-05 14:42:59.180 1.500E-01 0.500 F 0.026 0.582 -17° 46' 19.00" 1.000E-01 0.500 F 0.110 -0.418 19.0 R 0.70 -0.54 o 691 1.44 Yes Yes
2014YR O C K 2021-04-23.40173 1.000E-05 16:43:24.890 1.500E-01 0.500 F 0.072 -0.219 +02° 39' 35.10" 1.000E-01 0.500 F 0.227 -0.294 20.2 R 0.70 -0.06 o 691 0.74 Yes Yes
2014YR O C K 2021-04-23.40930 1.000E-05 16:43:25.470 1.500E-01 0.500 F 0.072 0.011 +02° 40' 01.50" 1.000E-01 0.500 F 0.227 -0.193 20.6 R 0.70 0.34 o 691 0.39 Yes Yes
2014YR O C K 2021-04-23.41688 1.000E-05 16:43:26.030 1.500E-01 0.500 F 0.072 -0.067 +02° 40' 28.20" 1.000E-01 0.500 F 0.227 0.167 20.4 R 0.70 0.14 o 691 0.36 Yes Yes
2021FP1 O C 2021-04-23.42777 1.000E-05 17:08:54.030 1.500E-01 0.500 F -0.022 -0.028 -09° 36' 56.70" 1.000E-01 0.500 F 0.068 0.171 19.2 R 0.70 0.25 o 691 0.35 Yes Yes
2021FP1 O C 2021-04-23.43093 1.000E-05 17:08:55.620 1.500E-01 0.500 F -0.022 -0.181 -09° 36' 58.60" 1.000E-01 0.500 F 0.068 0.290 19.1 R 0.70 0.15 o 691 0.69 Yes Yes
2021FP1 O C 2021-04-23.43303 1.000E-05 17:08:56.670 1.500E-01 0.500 F -0.022 -0.381 -09° 36' 59.90" 1.000E-01 0.500 F 0.068 0.329 19.0 R 0.70 0.05 o 691 1.02 Yes Yes
2021HM O C 2021-04-23.43661 1.000E-05 18:45:11.320 1.500E-01 0.500 F 0.004 -0.331 +01° 08' 33.50" 1.000E-01 0.500 F 0.374 0.086 19.3 R 0.70 0.15 o 691 0.70 Yes Yes
2021HM O C 2021-04-23.44086 1.000E-05 18:45:13.000 1.500E-01 0.500 F 0.004 -0.369 +01° 08' 49.30" 1.000E-01 0.500 F 0.374 0.397 19.6 R 0.70 0.45 o 691 1.10 Yes Yes
2021HM O C 2021-04-23.44415 1.000E-05 18:45:14.290 1.500E-01 0.500 F 0.068 -0.520 +01° 09' 00.60" 1.000E-01 0.500 F 0.333 -0.231 19.2 R 0.70 0.05 o 691 1.18 Yes Yes
2003KO2 O C 2021-04-23.44944 1.000E-05 19:22:07.990 1.500E-01 0.500 F 0.049 -0.728 -06° 24' 03.90" 1.000E-01 0.500 F 0.283 -0.115 18.2 R 0.70 0.14 o 691 1.48 Yes Yes

[1-200] [201-400] [401-600] [601-800] [801-1000] [1001-1200] [1201-1400] [1401-1600] [1601-1800] [1801-2000] [2001-2200] [2201-2400] [2401-2600] [2601-2800] [2801-3000] [3001-3200] [3201-3400] [3401-3600] [3601-3800] [3801-4000] [4001-4200] [4201-4400] [4401-4600] [4601-4800] [4801-5000] [5001-5200] [5201-5400] [5401-5600] [5601-5800] [5801-6000] [6001-6200] [6201-6400] [6401-6600] [6601-6800] [6801-7000] [7001-7200] [7201-7400] [7401-7600] [7601-7800] [7801-8000] [8001-8200] [8201-8400] [8401-8600] [8601-8800] [8801-9000] [9001-9200] [9201-9400] [9401-9600] [9601-9800] [9801-10000] [10001-10200] [10201-10400] [10401-10600] [10601-10800] [10801-11000] [11001-11200] [11201-11400] [11401-11600] [11601-11800] [11801-12000] [12001-12200] [12201-12400] [12401-12600] [12601-12800] [12801-13000] [13001-13200] [13201-13400] [13401-13600] [13601-13800] [13801-14000] [14001-14200] [14201-14400] [14401-14600] [14601-14800] [14801-15000] [15001-15200] [15201-15400] [15401-15600] [15601-15800] [15801-16000] [16001-16200] [16201-16400] [16401-16600] [16601-16800] [16801-17000] [17001-17200] [17201-17400] [17401-17600] [17601-17800] [17801-18000] [18001-18200] [18201-18400] [18401-18600] [18601-18800] [18801-19000] [19001-19200] [19201-19400] [19401-19600] [19601-19800] [19801-20000] [20001-20200] [20201-20400] [20401-20600] [20601-20800] [20801-21000] [21001-21200] [21201-21400] [21401-21600] [21601-21800] [21801-22000] [22001-22200] [22201-22400] [22401-22600] [22601-22800] [22801-23000] [23001-23200] [23201-23400] [23401-23600] [23601-23800] [23801-24000] [24001-24200] [24201-24400] [24401-24600] [24601-24800] [24801-25000] [25001-25200] [25201-25400] [25401-25600] [25601-25800] [25801-26000] [26001-26200] [26201-26400] [26401-26600] [26601-26800] [26801-27000] [27001-27200] [27201-27400] [27401-27600] [27601-27800] [27801-28000] [28001-28200] [28201-28400] [28401-28600] [28601-28800] [28801-29000] [29001-29200] [29201-29400] [29401-29600] [29601-29800] [29801-30000] [30001-30200] [30201-30400] [30401-30600] [30601-30800] [30801-31000] [31001-31200] [31201-31400] [31401-31600] [31601-31800] [31801-32000] [32001-32200] [32201-32400] [32401-32600] [32601-32800] [32801-33000] [33001-33200] [33201-33400] [33401-33600] [33601-33800] [33801-34000] [34001-34200] [34201-34400] [34401-34600] [34601-34800] [34801-35000] [35001-35200] [35201-35400] [35401-35600] [35601-35800] [35801-36000] [36001-36200] [36201-36400] [36401-36600] [36601-36800] [36801-37000] [37001-37200] [37201-37400] [37401-37600] [37601-37800] [37801-38000] [38001-38200] [38201-38400] [38401-38600] [38601-38800] [38801-39000] [39001-39200] [39201-39400] [39401-39600] [39601-39800] [39801-40000] [40001-40200] [40201-40400] [40401-40600] [40601-40800] [40801-41000] [41001-41200] [41201-41400] [41401-41600] [41601-41800] [41801-42000] [42001-42200] [42201-42400] [42401-42600] [42601-42800] [42801-43000] [43001-43200] [43201-43400] [43401-43600] [43601-43800] [43801-44000] [44001-44200] [44201-44400] [44401-44600] [44601-44800] [44801-45000] [45001-45200] [45201-45400] [45401-45600] [45601-45800] [45801-46000] [46001-46200] [46201-46400] [46401-46600] [46601-46800] [46801-47000] [47001-47200] [47201-47400] [47401-47600] [47601-47800] [47801-48000] [48001-48200] [48201-48400] [48401-48600] [48601-48800] [48801-49000] [49001-49200] [49201-49400] [49401-49600] [49601-49800] [49801-50000] [50001-50200] [50201-50400] [50401-50600] [50601-50741]